This is the latest recevied weather packets stored in our database for station/object PY2AQN-13. If no packets are shown the sender has not sent any weather packets the latest 10 day(s).
| Time | Temp. | Humidity | Pressure | Rain* | Wind** | Luminosity | Snow |
|---|---|---|---|---|---|---|---|
| 1787570607 | 22.78° C | 58% | 1019.5 hPa | - | - | - | - |
| 1787570007 | 22.78° C | 55% | 1019.2 hPa | - | - | - | - |
| 1787569407 | 22.78° C | 55% | 1019.2 hPa | - | - | - | - |
| 1787568807 | 22.78° C | 56% | 1019.1 hPa | - | - | - | - |
| 1787568207 | 22.22° C | 57% | 1019 hPa | - | - | - | - |
| 1787567607 | 22.22° C | 57% | 1018.8 hPa | - | - | - | - |
| 1787567007 | 22.22° C | 58% | 1018.7 hPa | - | - | - | - |
| 1787566407 | 21.67° C | 59% | 1019 hPa | - | - | - | - |
| 1787556737 | 15° C | 80% | 1019.5 hPa | - | - | - | - |
| 1787556137 | 15° C | 80% | 1019.5 hPa | - | - | - | - |
| 1787555537 | 15° C | 79% | 1019.6 hPa | - | - | - | - |
| 1787554937 | 15° C | 79% | 1019.6 hPa | - | - | - | - |
| 1787554337 | 15° C | 79% | 1019.8 hPa | - | - | - | - |
| 1787553737 | 15° C | 80% | 1019.8 hPa | - | - | - | - |
| 1787553137 | 15° C | 80% | 1019.9 hPa | - | - | - | - |
| 1787552537 | 15° C | 80% | 1019.9 hPa | - | - | - | - |
| 1787551937 | 15° C | 80% | 1020 hPa | - | - | - | - |
| 1787551337 | 15° C | 80% | 1020 hPa | - | - | - | - |
| 1787550737 | 15° C | 79% | 1019.9 hPa | - | - | - | - |
| 1787550137 | 15.56° C | 77% | 1019.8 hPa | - | - | - | - |
| 1787549538 | 15.56° C | 78% | 1019.7 hPa | - | - | - | - |
| 1787548937 | 15.56° C | 77% | 1019.6 hPa | - | - | - | - |
| 1787548337 | 15.56° C | 77% | 1019.6 hPa | - | - | - | - |
| 1787547737 | 15.56° C | 77% | 1019.7 hPa | - | - | - | - |
| 1787547137 | 15.56° C | 77% | 1019.8 hPa | - | - | - | - |
* Rain since midnight (hover to see other rain measurements)
** Current wind speed in m/s (hover to see current wind gust speed)